Latest Weather Observations for Gladstone Airport

IDQ60801

Issued at 5:52 pm EST Tuesday 17 May 2022 (issued every 10 minutes, with the page automatically refreshed every 10 minutes)

About weather observations | Map of weather stations | Latest weather observations for QLD | Other Formats
Station Details ID: 039326 Name: GLADSTONE AIRPORT Lat: -23.87 Lon: 151.22 Height: 16.6 m
Data from the previous 72 hours. | See also: Recent months at Gladstone Airport
Date/Time
EST
Temp
°C
App
Temp
°C
Dew
Point
°C
Rel
Hum
%
Delta-T
°C
Wind Press
QNH
hPa
Press
MSL
hPa
Rain since
9am
mm
Dir  Spd
km/h
Gust
km/h
Spd
kts
Gust
kts
17/05:30pm 25.8 27.2 20.4 72 3.5 E 13 15 7 8 1014.6 1014.6 0.0
17/05:00pm 26.4 28.0 20.0 68 4.2 E 11 15 6 8 1014.2 1014.2 0.0
17/04:30pm 27.0 28.1 19.6 64 4.8 E 13 15 7 8 1014.0 1014.0 0.0
17/04:00pm 27.3 29.0 20.1 64 4.7 ESE 11 17 6 9 1013.7 1013.7 0.0
17/03:30pm 26.8 29.0 20.4 68 4.2 E 9 15 5 8 1013.7 1013.7 0.0
17/03:00pm 26.8 27.7 20.9 70 3.9 NE 17 22 9 12 1013.5 1013.5 0.0
17/02:30pm 27.0 27.6 21.1 70 3.9 NE 19 24 10 13 1013.7 1013.7 0.0
17/02:00pm 26.9 27.3 20.7 69 4.1 NE 19 24 10 13 1014.0 1014.0 0.0
17/01:30pm 28.4 28.3 19.6 59 5.7 E 19 24 10 13 1013.9 1013.9 0.0
17/01:00pm 28.3 29.1 20.6 63 5.1 ENE 17 24 9 13 1014.3 1014.3 0.0
17/12:30pm 27.9 27.9 19.7 61 5.3 ESE 19 28 10 15 1014.6 1014.6 0.0
17/12:00pm 28.2 29.3 19.7 60 5.5 ESE 13 22 7 12 1014.9 1014.9 0.0
17/11:30am 28.4 29.4 20.2 61 5.4 E 15 20 8 11 1015.1 1015.1 0.0
17/11:00am 26.8 27.7 19.2 63 4.9 SE 13 19 7 10 1015.7 1015.7 0.0
17/10:30am 26.8 27.8 19.4 64 4.8 ESE 13 19 7 10 1016.1 1016.1 0.0
17/10:00am 25.8 28.0 19.7 69 3.9 S 7 13 4 7 1016.3 1016.3 0.0
17/09:30am 25.4 27.7 20.6 75 3.1 S 9 13 5 7 1016.3 1016.3 0.0
17/09:00am 24.0 25.6 19.9 78 2.6 S 11 17 6 9 1016.3 1016.3 0.4
17/08:30am 22.6 24.6 19.9 85 1.7 S 9 13 5 7 1016.2 1016.2 0.4
17/08:00am 21.0 23.3 19.8 93 0.8 SSW 7 11 4 6 1015.8 1015.8 0.4
17/07:30am 20.2 22.1 19.7 97 0.3 SSW 9 11 5 6 1015.5 1015.5 0.4
17/07:00am 19.7 21.3 19.2 97 0.3 SSW 9 13 5 7 1015.2 1015.2 0.4
17/06:59am 19.7 21.3 19.2 97 0.3 SSW 9 13 5 7 1015.2 1015.2 0.4
17/06:44am 19.6 21.2 19.1 97 0.3 SSW 9 15 5 8 1015.0 1015.0 0.4
17/06:30am 19.6 21.2 19.1 97 0.3 SSW 9 13 5 7 1014.9 1014.9 0.4
17/06:00am 19.8 21.5 19.3 97 0.3 SSW 9 15 5 8 1014.5 1014.5 0.4
17/05:58am 19.8 21.5 19.3 97 0.3 SSW 9 13 5 7 1014.5 1014.5 0.4
17/05:30am 20.2 22.5 19.9 98 0.2 SSW 7 11 4 6 1014.1 1014.1 0.4
17/05:00am 20.4 22.7 19.9 97 0.3 SSW 7 9 4 5 1014.0 1014.0 0.4
17/04:38am 20.4 23.3 19.9 97 0.3 SSW 4 9 2 5 1013.8 1013.8 0.2
17/04:30am 20.5 23.8 20.0 97 0.3 SSW 2 7 1 4 1013.7 1013.7 0.2
17/04:00am 20.7 23.4 20.2 97 0.3 SSW 6 7 3 4 1013.6 1013.6 0.2
17/03:39am 20.9 23.5 20.4 97 0.3 SSW 7 13 4 7 1013.6 1013.6 0.2
17/03:30am 21.0 23.6 20.5 97 0.3 SSW 7 11 4 6 1013.6 1013.6 0.2
17/03:00am 21.0 23.8 20.5 97 0.3 S 6 9 3 5 1013.5 1013.5 0.2
17/02:53am 21.0 23.6 20.5 97 0.3 S 7 9 4 5 1013.5 1013.5 0.2
17/02:52am 21.0 23.6 20.5 97 0.3 S 7 9 4 5 1013.5 1013.5 0.2
17/02:34am 21.0 23.6 20.5 97 0.3 S 7 11 4 6 1013.5 1013.5 0.2
17/02:30am 21.0 23.6 20.5 97 0.3 S 7 11 4 6 1013.5 1013.5 0.2
17/02:24am 21.0 23.6 20.5 97 0.3 S 7 13 4 7 1013.5 1013.5 0.2
17/02:00am 21.0 23.2 20.3 96 0.5 SSW 9 15 5 8 1013.7 1013.7 0.2
17/01:30am 21.0 23.2 20.3 96 0.5 SSW 9 17 5 9 1013.9 1013.9 0.2
17/01:00am 21.1 23.3 20.3 95 0.5 SSW 9 15 5 8 1014.1 1014.1 0.2
17/12:30am 21.3 24.5 20.5 95 0.5 S 4 7 2 4 1014.1 1014.1 0.2
17/12:00am 21.5 24.3 20.5 94 0.6 S 6 9 3 5 1014.3 1014.3 0.2
 
Date/Time
EST
Temp
°C
App
Temp
°C
Dew
Point
°C
Rel
Hum
%
Delta-T
°C
Wind Press
QNH
hPa
Press
MSL
hPa
Rain since
9am
mm
Dir  Spd
km/h
Gust
km/h
Spd
kts
Gust
kts
16/11:51pm 21.6 24.5 20.6 94 0.6 S 6 9 3 5 1014.4 1014.4 0.2
16/11:30pm 21.7 25.3 20.5 93 0.8 S 2 9 1 5 1014.4 1014.4 0.2
16/11:16pm 21.8 24.7 20.6 93 0.8 S 6 6 3 3 1014.4 1014.4 0.2
16/11:02pm 21.7 24.6 20.7 94 0.6 SSW 6 7 3 4 1014.5 1014.5 0.2
16/11:00pm 21.7 25.0 20.7 94 0.6 SSW 4 7 2 4 1014.4 1014.4 0.2
16/10:43pm 21.9 24.9 20.9 94 0.7 SSW 6 9 3 5 1014.5 1014.5 0.2
16/10:30pm 22.1 25.2 21.1 94 0.7 SSW 6 7 3 4 1014.5 1014.5 0.2
16/10:13pm 22.3 26.7 21.3 94 0.7 CALM 0 0 0 0 1014.5 1014.5 0.2
16/10:06pm 22.3 26.6 21.1 93 0.8 CALM 0 0 0 0 1014.5 1014.5 0.2
16/10:00pm 22.2 26.4 21.0 93 0.8 CALM 0 4 0 2 1014.5 1014.5 0.2
16/09:36pm 22.5 25.6 21.5 94 0.7 SSW 7 11 4 6 1014.4 1014.4 0.2
16/09:30pm 22.6 25.4 21.6 94 0.7 SW 9 11 5 6 1014.4 1014.4 0.2
16/09:14pm 22.4 25.0 21.2 93 0.8 SW 9 13 5 7 1014.3 1014.3 0.2
16/09:13pm 22.4 25.0 21.2 93 0.8 SSW 9 13 5 7 1014.4 1014.4 0.2
16/09:00pm 22.2 25.0 20.8 92 0.9 SSW 7 9 4 5 1014.3 1014.3 0.2
16/08:30pm 22.3 25.3 20.8 91 1.0 SSE 6 6 3 3 1014.0 1014.0 0.2
16/08:00pm 22.9 25.9 21.2 90 1.1 ESE 7 7 4 4 1013.7 1013.7 0.2
16/07:30pm 22.9 27.1 21.0 89 1.2 CALM 0 0 0 0 1013.6 1013.6 0.2
16/07:00pm 23.5 27.6 21.6 89 1.3 NE 2 7 1 4 1013.3 1013.3 0.2
16/06:30pm 23.7 27.1 21.6 88 1.4 E 6 7 3 4 1013.0 1013.0 0.2
16/06:00pm 23.9 26.7 21.6 87 1.5 ENE 9 13 5 7 1012.8 1012.8 0.2
16/05:30pm 24.3 26.6 21.4 84 1.9 ENE 11 13 6 7 1012.6 1012.6 0.2
16/05:00pm 25.3 27.4 21.0 77 2.8 ENE 11 13 6 7 1012.3 1012.3 0.2
16/04:30pm 26.0 27.7 20.1 70 3.8 NE 11 13 6 7 1012.0 1012.0 0.2
16/04:00pm 26.7 28.2 19.8 66 4.5 NE 11 15 6 8 1011.9 1011.9 0.2
16/03:30pm 27.2 29.1 19.8 64 4.8 NE 9 15 5 8 1011.9 1011.9 0.2
16/03:00pm 27.2 28.1 19.3 62 5.1 NNE 13 17 7 9 1011.9 1011.9 0.2
16/02:30pm 27.3 29.0 20.1 64 4.7 NE 11 17 6 9 1011.8 1011.8 0.2
16/02:00pm 27.6 28.4 19.9 63 5.0 NE 15 19 8 10 1012.0 1012.0 0.2
16/01:30pm 27.2 28.0 19.8 64 4.8 NNE 15 20 8 11 1012.1 1012.1 0.2
16/01:00pm 27.4 29.0 20.0 64 4.8 NE 11 15 6 8 1012.5 1012.5 0.2
16/12:30pm 27.2 29.9 20.3 66 4.5 E 6 13 3 7 1012.9 1012.9 0.2
16/12:00pm 26.2 30.1 21.2 74 3.3 ENE 2 7 1 4 1013.3 1013.3 0.2
16/11:30am 25.3 28.3 20.8 76 3.0 SSE 6 9 3 5 1013.6 1013.6 0.2
16/11:00am 25.1 27.4 19.9 73 3.4 SSE 7 11 4 6 1013.8 1013.8 0.0
16/10:30am 25.3 27.5 20.5 75 3.1 SE 9 15 5 8 1014.0 1014.0 0.0
16/10:00am 25.1 27.7 20.4 75 3.1 SSE 7 15 4 8 1014.0 1014.0 0.0
16/09:30am 24.2 26.2 19.9 77 2.8 SSE 9 13 5 7 1013.9 1013.9 0.0
16/09:00am 23.3 27.2 20.4 84 1.9 CALM 0 6 0 3 1013.8 1013.8 0.0
16/08:30am 22.0 25.0 20.1 89 1.2 S 4 7 2 4 1013.5 1013.5 0.0
16/08:00am 21.3 23.8 19.9 92 0.9 SSW 6 9 3 5 1013.3 1013.3 0.0
16/07:30am 20.8 22.6 19.5 92 0.8 SSW 9 13 5 7 1013.0 1013.0 0.0
16/07:00am 20.7 22.5 19.5 93 0.8 SSW 9 11 5 6 1012.6 1012.6 0.0
16/06:30am 20.5 22.7 19.5 94 0.6 SSW 7 11 4 6 1012.2 1012.2 0.0
16/06:00am 20.4 22.1 19.4 94 0.6 SSW 9 13 5 7 1011.8 1011.8 0.0
16/05:30am 20.4 22.2 19.6 95 0.5 SSW 9 11 5 6 1011.7 1011.7 0.0
16/05:13am 20.5 22.7 19.7 95 0.5 SSW 7 11 4 6 1011.6 1011.6 0.0
16/05:00am 20.5 22.7 19.7 95 0.5 SSW 7 9 4 5 1011.6 1011.6 0.0
16/04:53am 20.5 22.7 19.7 95 0.5 S 7 9 4 5 1011.6 1011.6 0.0
16/04:30am 20.7 23.0 19.9 95 0.5 S 7 9 4 5 1011.5 1011.5 0.0
16/04:00am 20.8 23.2 20.0 95 0.5 S 7 15 4 8 1011.4 1011.4 0.0
16/03:30am 20.8 23.2 20.0 95 0.5 SSW 7 11 4 6 1011.1 1011.1 0.0
16/03:29am 20.8 23.2 20.0 95 0.5 SSW 7 11 4 6 1011.1 1011.1 0.0
16/03:01am 20.8 23.8 20.0 95 0.5 SSW 4 9 2 5 1011.1 1011.1 0.0
16/03:00am 20.8 23.8 20.0 95 0.5 SSW 4 9 2 5 1011.1 1011.1 0.0
16/02:30am 20.9 23.3 20.1 95 0.5 SSW 7 11 4 6 1011.4 1011.4 0.0
16/02:00am 21.0 23.0 20.0 94 0.6 SSW 9 13 5 7 1011.7 1011.7 0.0
16/01:36am 21.1 23.6 19.9 93 0.8 SSW 6 7 3 4 1011.8 1011.8 0.0
16/01:30am 21.1 23.6 19.9 93 0.8 SSW 6 9 3 5 1011.8 1011.8 0.0
16/01:00am 21.2 23.7 19.8 92 0.9 SSW 6 7 3 4 1012.1 1012.1 0.0
16/12:30am 21.4 24.0 20.0 92 0.9 SSW 6 7 3 4 1012.3 1012.3 0.0
16/12:00am 21.6 25.4 20.1 91 1.0 CALM 0 0 0 0 1012.5 1012.5 0.0
 
Date/Time
EST
Temp
°C
App
Temp
°C
Dew
Point
°C
Rel
Hum
%
Delta-T
°C
Wind Press
QNH
hPa
Press
MSL
hPa
Rain since
9am
mm
Dir  Spd
km/h
Gust
km/h
Spd
kts
Gust
kts
15/11:30pm 21.8 24.6 20.4 92 0.9 SSW 6 7 3 4 1012.8 1012.8 0.0
15/11:00pm 21.6 24.7 20.2 92 0.9 SSW 4 7 2 4 1012.9 1012.9 0.0
15/10:30pm 21.6 24.1 20.2 92 0.9 SSW 7 9 4 5 1012.8 1012.8 0.0
15/10:00pm 21.8 25.7 20.3 91 1.0 CALM 0 0 0 0 1012.9 1012.9 0.0
15/09:30pm 21.9 24.4 20.2 90 1.1 S 7 9 4 5 1012.9 1012.9 0.0
15/09:00pm 22.2 25.8 20.5 90 1.1 SSE 2 6 1 3 1012.7 1012.7 0.0
15/08:30pm 22.4 26.3 20.3 88 1.4 CALM 0 0 0 0 1012.5 1012.5 0.0
15/08:00pm 22.6 26.5 20.3 87 1.5 CALM 0 0 0 0 1012.2 1012.2 0.0
15/07:30pm 23.2 26.4 20.5 85 1.8 E 4 7 2 4 1011.9 1011.9 0.0
15/07:00pm 23.3 26.1 20.4 84 1.9 E 6 7 3 4 1011.5 1011.5 0.0
15/06:30pm 23.4 26.1 20.3 83 2.0 E 6 9 3 5 1011.2 1011.2 0.0
15/06:00pm 23.6 25.3 20.1 81 2.3 E 11 13 6 7 1010.9 1010.9 0.0
15/05:30pm 24.0 25.2 19.9 78 2.6 E 13 17 7 9 1010.6 1010.6 0.0
15/05:00pm 24.6 25.3 19.7 74 3.2 ENE 15 19 8 10 1010.3 1010.3 0.0
15/04:30pm 25.3 25.6 19.7 71 3.6 ENE 17 20 9 11 1010.4 1010.4 0.0
15/04:00pm 26.4 26.9 19.3 65 4.6 NE 15 19 8 10 1009.9 1009.9 0.0
15/03:30pm 27.5 28.4 19.3 61 5.3 E 13 17 7 9 1009.7 1009.7 0.0
15/03:00pm 27.3 28.6 20.1 64 4.7 NE 13 17 7 9 1009.6 1009.6 0.0
15/02:30pm 27.4 28.8 19.5 62 5.1 E 11 15 6 8 1009.5 1009.5 0.0
15/02:00pm 27.0 28.3 19.4 63 4.9 ENE 11 15 6 8 1009.8 1009.8 0.0
15/01:30pm 26.5 28.0 18.9 63 4.9 E 9 15 5 8 1010.2 1010.2 0.0
15/01:00pm 26.8 28.1 19.4 64 4.8 NE 11 15 6 8 1010.8 1010.8 0.0
15/12:30pm 27.0 29.5 20.3 66 4.4 ENE 7 19 4 10 1011.3 1011.3 0.0
15/12:00pm 25.8 27.5 20.1 71 3.7 NE 11 15 6 8 1012.1 1012.1 0.0
15/11:30am 25.1 26.3 19.9 73 3.4 ENE 13 19 7 10 1012.6 1012.6 0.0
15/11:00am 25.3 27.3 19.9 72 3.5 NE 9 13 5 7 1012.8 1012.8 0.0
15/10:30am 24.8 27.1 19.8 74 3.2 NNE 7 11 4 6 1013.2 1013.2 0.0
15/10:13am 25.5 27.3 20.3 73 3.4 ENE 11 13 6 7 1013.3 1013.3 0.0
15/10:00am 24.9 27.1 20.4 76 2.9 ESE 9 15 5 8 1013.4 1013.4 0.0
15/09:50am 24.5 27.2 20.6 79 2.5 SE 7 11 4 6 1013.5 1013.5 0.0
15/09:30am 24.1 27.0 20.6 81 2.3 SSE 6 9 3 5 1013.5 1013.5 0.0
15/09:00am 22.0 24.3 19.9 88 1.3 SSW 7 11 4 6 1013.5 1013.5 0.0
15/08:30am 21.0 22.7 19.3 90 1.1 SSW 9 11 5 6 1013.4 1013.4 0.0
15/08:00am 21.1 23.4 19.4 90 1.1 S 6 9 3 5 1013.0 1013.0 0.0
15/07:30am 20.9 24.2 19.9 94 0.6 NW 2 6 1 3 1012.6 1012.6 0.0
15/07:17am 20.2 22.4 19.2 94 0.6 WSW 6 9 3 5 1012.7 1012.7 0.0
15/07:00am 19.5 21.4 18.5 94 0.6 SSW 6 11 3 6 1012.4 1012.4 0.0
15/06:59am 19.5 21.8 18.5 94 0.6 SSW 4 11 2 6 1012.4 1012.4 0.0
15/06:46am 19.5 22.5 18.5 94 0.6 CALM 0 0 0 0 1012.3 1012.3 0.0
15/06:45am 19.5 22.5 18.5 94 0.6 CALM 0 0 0 0 1012.3 1012.3 0.0
15/06:30am 19.5 22.5 18.5 94 0.6 CALM 0 0 0 0 1012.0 1012.0 0.0
15/06:02am 19.8 21.8 18.8 94 0.6 SSE 6 9 3 5 1011.6 1011.6 0.0
15/06:00am 19.8 21.8 18.8 94 0.6 SSE 6 7 3 4 1011.6 1011.6 0.0
15/05:30am 19.8 21.5 18.6 93 0.7 SSW 7 9 4 5 1011.2 1011.2 0.0
15/05:00am 20.2 22.3 19.0 93 0.8 SW 6 9 3 5 1011.1 1011.1 0.0
15/04:30am 20.3 23.6 19.1 93 0.8 CALM 0 0 0 0 1011.2 1011.2 0.0
15/04:00am 20.1 22.1 18.8 92 0.8 SSW 6 7 3 4 1011.0 1011.0 0.0
15/03:30am 20.2 23.4 18.9 92 0.8 CALM 0 6 0 3 1010.7 1010.7 0.0
15/03:00am 20.5 22.5 19.2 92 0.8 S 7 11 4 6 1010.6 1010.6 0.0
15/02:30am 20.7 22.9 19.2 91 0.9 SE 6 9 3 5 1010.7 1010.7 0.0
15/02:00am 21.0 23.1 19.3 90 1.1 SW 7 11 4 6 1010.8 1010.8 0.0
15/01:30am 21.5 25.0 19.6 89 1.2 CALM 0 0 0 0 1011.0 1011.0 0.0
15/01:00am 21.5 25.0 19.6 89 1.2 CALM 0 0 0 0 1011.1 1011.1 0.0
15/12:30am 21.5 24.3 19.6 89 1.2 E 4 9 2 5 1011.3 1011.3 0.0
15/12:00am 21.7 24.0 19.8 89 1.2 SSW 7 9 4 5 1011.3 1011.3 0.0
 
Date/Time
EST
Temp
°C
App
Temp
°C
Dew
Point
°C
Rel
Hum
%
Delta-T
°C
Wind Press
QNH
hPa
Press
MSL
hPa
Rain since
9am
mm
Dir  Spd
km/h
Gust
km/h
Spd
kts
Gust
kts
14/11:30pm 21.6 23.8 19.7 89 1.2 SSW 7 11 4 6 1011.5 1011.5 0.0
14/11:00pm 21.9 25.4 19.6 87 1.5 CALM 0 0 0 0 1011.4 1011.4 0.0
14/10:30pm 22.6 26.2 19.8 84 1.8 CALM 0 0 0 0 1011.5 1011.5 0.0
14/10:00pm 23.1 26.9 20.1 83 1.9 CALM 0 0 0 0 1011.5 1011.5 0.0
14/09:30pm 23.0 26.6 19.8 82 2.1 CALM 0 0 0 0 1011.6 1011.6 0.0
14/09:00pm 23.0 25.9 19.8 82 2.1 SSE 4 7 2 4 1011.7 1011.7 0.0
14/08:30pm 23.0 25.2 19.6 81 2.2 ESE 7 11 4 6 1011.6 1011.6 0.0
14/08:00pm 22.9 26.5 19.7 82 2.1 CALM 0 0 0 0 1011.2 1011.2 0.0
14/07:30pm 23.0 25.3 19.4 80 2.3 ENE 6 7 3 4 1010.9 1010.9 0.0
14/07:00pm 23.2 26.6 19.4 79 2.4 CALM 0 4 0 2 1010.4 1010.4 0.0
14/06:30pm 23.7 25.8 19.4 77 2.8 WNW 7 9 4 5 1010.0 1010.0 0.0
14/06:00pm 24.3 26.1 19.6 75 3.0 NW 9 13 5 7 1009.9 1009.9 0.0

Other formats

Comma delimited format used in spreadsheet applications
http://www.bom.gov.au/fwo/IDQ60801/IDQ60801.94381.axf

JavaScript Object Notation format (JSON) in row-major order
http://www.bom.gov.au/fwo/IDQ60801/IDQ60801.94381.json

Data quality

Most of these data are generated automatically and are frequently updated. Quality checks on data are not normally performed. It is possible for incorrect values to appear. Refer to information at About Latest Weather Observations and please check the disclaimer before using these data.